Time,TemperatureF,DewpointF,PressureIn,WindDirection,WindDirectionDegrees,WindSpeedMPH,WindSpeedGustMPH,Humidity,HourlyPrecipIn,Conditions,Clouds,dailyrainin,SoftwareType,DateUTC
2013-05-24 00:01:00,56.9,52.1,30.05,SE,140,2.0,6.0,84,0.00,,,0.00,VWS V14.01,2013-05-24 05:01:00,
2013-05-24 00:06:00,56.7,51.9,30.05,SSE,164,1.0,5.0,84,0.00,,,0.00,VWS V14.01,2013-05-24 05:06:00,
2013-05-24 00:11:00,56.6,51.8,30.05,South,178,2.0,6.0,84,0.00,,,0.00,VWS V14.01,2013-05-24 05:11:00,
2013-05-24 00:16:00,56.6,52.2,30.05,South,176,1.0,6.0,85,0.00,,,0.00,VWS V14.01,2013-05-24 05:16:00,
2013-05-24 00:21:00,56.6,52.2,30.06,South,189,2.0,7.0,85,0.00,,,0.00,VWS V14.01,2013-05-24 05:21:00,
2013-05-24 00:26:00,56.6,52.5,30.06,South,186,2.0,7.0,86,0.00,,,0.00,VWS V14.01,2013-05-24 05:26:00,
2013-05-24 00:31:00,56.7,52.2,30.06,SE,133,3.0,8.0,85,0.00,,,0.00,VWS V14.01,2013-05-24 05:31:00,
2013-05-24 00:36:00,56.6,52.5,30.06,South,186,2.0,7.0,86,0.00,,,0.00,VWS V14.01,2013-05-24 05:36:00,
2013-05-24 00:41:00,56.6,52.8,30.06,South,178,2.0,7.0,87,0.00,,,0.00,VWS V14.01,2013-05-24 05:41:00,
2013-05-24 00:46:00,56.6,52.8,30.06,SSE,160,2.0,10.0,87,0.00,,,0.00,VWS V14.01,2013-05-24 05:46:00,
2013-05-24 00:51:00,56.6,53.1,30.07,SSE,158,1.0,6.0,88,0.00,,,0.00,VWS V14.01,2013-05-24 05:51:00,
2013-05-24 00:56:00,56.6,53.1,30.07,South,188,2.0,7.0,88,0.00,,,0.00,VWS V14.01,2013-05-24 05:56:00,
2013-05-24 01:01:00,56.5,53.0,30.07,SE,140,1.0,7.0,88,0.00,,,0.00,VWS V14.01,2013-05-24 06:01:00,
2013-05-24 01:06:00,56.5,53.3,30.06,SSW,209,3.0,8.0,89,0.00,,,0.00,VWS V14.01,2013-05-24 06:06:00,
2013-05-24 01:11:00,56.5,53.3,30.06,South,188,2.0,8.0,89,0.00,,,0.00,VWS V14.01,2013-05-24 06:11:00,
2013-05-24 01:16:00,56.3,53.1,30.06,South,186,2.0,8.0,89,0.00,,,0.00,VWS V14.01,2013-05-24 06:16:00,
2013-05-24 01:21:00,56.2,53.0,30.05,SSE,158,3.0,6.0,89,0.00,,,0.00,VWS V14.01,2013-05-24 06:21:00,
2013-05-24 01:26:00,56.0,53.7,30.05,SE,145,2.0,6.0,92,0.00,,,0.00,VWS V14.01,2013-05-24 06:26:00,
2013-05-24 01:31:00,56.0,54.3,30.05,SSE,152,2.0,7.0,94,0.00,,,0.00,VWS V14.01,2013-05-24 06:31:00,
2013-05-24 01:37:00,55.9,54.2,30.05,SSW,195,5.0,7.0,94,0.00,,,0.00,VWS V14.01,2013-05-24 06:37:00,
2013-05-24 01:41:00,55.7,54.3,30.05,SSW,208,6.0,7.0,95,0.00,,,0.00,VWS V14.01,2013-05-24 06:41:00,
2013-05-24 01:46:00,55.7,54.3,30.05,SSE,162,9.0,9.0,95,0.00,,,0.00,VWS V14.01,2013-05-24 06:46:00,
2013-05-24 01:51:00,55.6,54.2,30.05,SE,138,2.0,6.0,95,0.00,,,0.00,VWS V14.01,2013-05-24 06:51:00,
2013-05-24 01:56:00,55.4,54.0,30.05,SSE,147,4.0,7.0,95,0.00,,,0.00,VWS V14.01,2013-05-24 06:56:00,
2013-05-24 02:01:00,55.4,54.8,30.05,SSE,165,5.0,8.0,98,0.00,,,0.00,VWS V14.01,2013-05-24 07:01:00,
2013-05-24 02:06:00,55.3,55.0,30.04,South,172,5.0,8.0,99,0.00,,,0.00,VWS V14.01,2013-05-24 07:06:00,
2013-05-24 02:11:00,55.3,55.3,30.04,South,181,2.0,13.0,100,0.00,,,0.00,VWS V14.01,2013-05-24 07:11:00,
2013-05-24 02:16:00,55.1,55.1,30.04,South,171,5.0,13.0,100,0.00,,,0.00,VWS V14.01,2013-05-24 07:16:00,
2013-05-24 02:21:00,55.1,55.1,30.03,South,184,2.0,6.0,100,0.00,,,0.00,VWS V14.01,2013-05-24 07:21:00,
2013-05-24 02:26:00,55.1,55.1,30.03,South,175,5.0,6.0,100,0.00,,,0.00,VWS V14.01,2013-05-24 07:26:00,
2013-05-24 02:31:00,55.0,55.0,30.03,South,171,3.0,8.0,100,0.00,,,0.00,VWS V14.01,2013-05-24 07:31:00,
2013-05-24 02:36:00,55.0,55.0,30.03,South,174,3.0,7.0,100,0.00,,,0.00,VWS V14.01,2013-05-24 07:36:00,
2013-05-24 02:41:00,55.0,55.0,30.03,South,174,3.0,8.0,100,0.00,,,0.00,VWS V14.01,2013-05-24 07:41:00,
2013-05-24 02:46:00,54.8,54.8,30.03,South,174,5.0,8.0,100,0.00,,,0.00,VWS V14.01,2013-05-24 07:46:00,
2013-05-24 02:51:00,54.8,54.8,30.02,SSE,168,3.0,7.0,100,0.00,,,0.00,VWS V14.01,2013-05-24 07:51:00,
2013-05-24 02:56:00,54.8,54.8,30.02,SSE,167,3.0,7.0,100,0.00,,,0.00,VWS V14.01,2013-05-24 07:56:00,
2013-05-24 03:01:00,54.8,54.8,30.02,SSE,164,5.0,7.0,100,0.00,,,0.00,VWS V14.01,2013-05-24 08:01:00,
2013-05-24 03:06:00,55.0,55.0,30.02,SE,143,3.0,6.0,100,0.00,,,0.00,VWS V14.01,2013-05-24 08:06:00,
2013-05-24 03:11:00,55.0,55.0,30.02,SSW,192,3.0,8.0,100,0.00,,,0.00,VWS V14.01,2013-05-24 08:11:00,
2013-05-24 03:16:00,55.1,55.1,30.02,South,182,7.0,11.0,100,0.00,,,0.00,VWS V14.01,2013-05-24 08:16:00,
2013-05-24 03:21:00,55.1,55.1,30.01,SSE,162,6.0,8.0,100,0.00,,,0.00,VWS V14.01,2013-05-24 08:21:00,
2013-05-24 03:26:00,55.1,55.1,30.01,SSE,148,2.0,10.0,100,0.00,,,0.00,VWS V14.01,2013-05-24 08:26:00,
2013-05-24 03:31:00,55.1,55.1,30.01,SSE,148,6.0,10.0,100,0.00,,,0.00,VWS V14.01,2013-05-24 08:31:00,
2013-05-24 03:36:00,55.1,55.1,30.01,SSE,150,1.0,7.0,100,0.00,,,0.00,VWS V14.01,2013-05-24 08:36:00,
2013-05-24 03:41:00,55.3,55.3,30.01,South,171,4.0,7.0,100,0.00,,,0.00,VWS V14.01,2013-05-24 08:41:00,
2013-05-24 03:46:00,55.3,55.3,30.01,South,176,5.0,11.0,100,0.00,,,0.00,VWS V14.01,2013-05-24 08:46:00,
2013-05-24 03:51:00,55.3,55.3,30.01,SSE,164,8.0,10.0,100,0.00,,,0.00,VWS V14.01,2013-05-24 08:51:00,
2013-05-24 03:56:00,55.3,55.3,30.01,South,172,2.0,10.0,100,0.00,,,0.00,VWS V14.01,2013-05-24 08:56:00,
2013-05-24 04:01:00,55.3,55.3,30.01,South,188,2.0,11.0,100,0.00,,,0.00,VWS V14.01,2013-05-24 09:01:00,
2013-05-24 04:06:00,55.3,55.3,30.00,SSE,164,7.0,12.0,100,0.00,,,0.00,VWS V14.01,2013-05-24 09:06:00,
2013-05-24 04:11:00,55.3,55.3,30.00,SSE,161,5.0,12.0,100,0.00,,,0.00,VWS V14.01,2013-05-24 09:11:00,
2013-05-24 04:16:00,55.3,55.3,30.00,SSE,168,5.0,12.0,100,0.00,,,0.00,VWS V14.01,2013-05-24 09:16:00,
2013-05-24 04:21:00,55.3,55.3,30.01,South,185,2.0,7.0,100,0.00,,,0.00,VWS V14.01,2013-05-24 09:21:00,
2013-05-24 04:26:00,55.3,55.3,30.01,South,181,6.0,10.0,100,0.00,,,0.00,VWS V14.01,2013-05-24 09:26:00,
2013-05-24 04:31:00,55.3,55.3,30.01,South,169,3.0,10.0,100,0.00,,,0.00,VWS V14.01,2013-05-24 09:31:00,
2013-05-24 04:36:00,55.1,55.1,30.01,South,189,3.0,8.0,100,0.00,,,0.00,VWS V14.01,2013-05-24 09:36:00,
2013-05-24 04:41:00,55.1,55.1,30.01,SSE,160,7.0,10.0,100,0.00,,,0.00,VWS V14.01,2013-05-24 09:41:00,
2013-05-24 04:46:00,55.1,55.1,30.01,South,186,7.0,11.0,100,0.00,,,0.00,VWS V14.01,2013-05-24 09:46:00,
2013-05-24 04:51:00,55.1,55.1,30.01,SSE,165,3.0,11.0,100,0.00,,,0.00,VWS V14.01,2013-05-24 09:51:00,
2013-05-24 04:57:00,55.1,55.1,30.01,South,175,2.0,12.0,100,0.00,,,0.00,VWS V14.01,2013-05-24 09:57:00,
2013-05-24 05:01:00,55.1,55.1,30.01,South,178,6.0,12.0,100,0.00,,,0.00,VWS V14.01,2013-05-24 10:01:00,
2013-05-24 05:06:00,55.1,55.1,30.01,SSW,203,7.0,10.0,100,0.00,,,0.00,VWS V14.01,2013-05-24 10:06:00,
2013-05-24 05:11:00,55.1,55.1,30.01,SSE,162,5.0,10.0,100,0.00,,,0.00,VWS V14.01,2013-05-24 10:11:00,
2013-05-24 05:16:00,55.1,55.1,30.01,SSE,161,5.0,10.0,100,0.00,,,0.00,VWS V14.01,2013-05-24 10:16:00,
2013-05-24 05:21:00,55.0,55.0,30.00,SSE,158,6.0,9.0,100,0.00,,,0.00,VWS V14.01,2013-05-24 10:21:00,
2013-05-24 05:26:00,55.0,55.0,30.00,SSE,167,5.0,10.0,100,0.00,,,0.00,VWS V14.01,2013-05-24 10:26:00,
2013-05-24 05:31:00,55.0,55.0,30.00,SSE,162,5.0,17.0,100,0.00,,,0.00,VWS V14.01,2013-05-24 10:31:00,
2013-05-24 05:37:00,55.0,55.0,30.00,SSE,168,5.0,12.0,100,0.00,,,0.00,VWS V14.01,2013-05-24 10:37:00,
2013-05-24 05:42:00,55.0,55.0,30.00,South,179,7.0,12.0,100,0.00,,,0.00,VWS V14.01,2013-05-24 10:42:00,
2013-05-24 05:47:00,55.0,55.0,30.00,South,186,5.0,12.0,100,0.00,,,0.00,VWS V14.01,2013-05-24 10:47:00,
2013-05-24 05:52:00,55.0,55.0,30.00,SSW,192,3.0,8.0,100,0.00,,,0.00,VWS V14.01,2013-05-24 10:52:00,
2013-05-24 05:57:00,55.0,55.0,30.00,SSE,167,5.0,11.0,100,0.00,,,0.00,VWS V14.01,2013-05-24 10:57:00,
2013-05-24 06:02:00,55.0,55.0,30.00,SSE,157,3.0,11.0,100,0.00,,,0.00,VWS V14.01,2013-05-24 11:02:00,
2013-05-24 06:07:00,55.0,55.0,30.00,SSE,165,2.0,10.0,100,0.00,,,0.00,VWS V14.01,2013-05-24 11:07:00,
2013-05-24 06:12:00,55.0,55.0,30.00,SSW,193,5.0,11.0,100,0.00,,,0.00,VWS V14.01,2013-05-24 11:12:00,
2013-05-24 06:17:00,55.0,55.0,30.00,South,178,5.0,11.0,100,0.00,,,0.00,VWS V14.01,2013-05-24 11:17:00,
2013-05-24 06:22:00,55.0,55.0,30.00,SSE,165,2.0,7.0,100,0.00,,,0.00,VWS V14.01,2013-05-24 11:22:00,
2013-05-24 06:27:00,55.0,55.0,30.00,South,175,5.0,7.0,100,0.00,,,0.00,VWS V14.01,2013-05-24 11:27:00,
2013-05-24 06:32:00,55.0,55.0,30.00,SSE,168,5.0,10.0,100,0.00,,,0.00,VWS V14.01,2013-05-24 11:32:00,
2013-05-24 06:37:00,55.1,55.1,30.00,SSE,148,5.0,10.0,100,0.00,,,0.00,VWS V14.01,2013-05-24 11:37:00,
2013-05-24 06:42:00,55.1,55.1,30.00,South,189,7.0,11.0,100,0.00,,,0.00,VWS V14.01,2013-05-24 11:42:00,
2013-05-24 06:47:00,55.1,55.1,30.00,SE,138,5.0,11.0,100,0.00,,,0.00,VWS V14.01,2013-05-24 11:47:00,
2013-05-24 06:52:00,55.1,55.1,30.00,SSW,200,4.0,12.0,100,0.00,,,0.00,VWS V14.01,2013-05-24 11:52:00,
2013-05-24 06:57:00,55.1,55.1,30.00,SE,145,7.0,12.0,100,0.00,,,0.00,VWS V14.01,2013-05-24 11:57:00,
2013-05-24 07:02:00,55.1,55.1,30.00,South,189,6.0,12.0,100,0.00,,,0.00,VWS V14.01,2013-05-24 12:02:00,
2013-05-24 07:07:00,55.1,55.1,30.00,SSW,198,11.0,12.0,100,0.00,,,0.00,VWS V14.01,2013-05-24 12:07:00,
2013-05-24 07:12:00,55.1,55.1,30.00,SSE,161,6.0,14.0,100,0.00,,,0.00,VWS V14.01,2013-05-24 12:12:00,
2013-05-24 07:17:00,55.1,55.1,30.00,South,179,8.0,14.0,100,0.00,,,0.00,VWS V14.01,2013-05-24 12:17:00,
2013-05-24 07:22:00,55.1,55.1,30.01,South,172,6.0,10.0,100,0.00,,,0.00,VWS V14.01,2013-05-24 12:22:00,
2013-05-24 07:27:00,55.0,55.0,30.01,SSW,196,12.0,12.0,100,0.00,,,0.00,VWS V14.01,2013-05-24 12:27:00,
2013-05-24 07:32:00,55.0,55.0,30.01,SSE,165,7.0,13.0,100,0.00,,,0.00,VWS V14.01,2013-05-24 12:32:00,
2013-05-24 07:37:00,55.0,55.0,30.00,SSE,167,5.0,9.0,100,0.00,,,0.00,VWS V14.01,2013-05-24 12:37:00,
2013-05-24 07:42:00,55.0,55.0,30.00,SSE,158,7.0,14.0,100,0.00,,,0.00,VWS V14.01,2013-05-24 12:42:00,
2013-05-24 07:47:00,55.0,55.0,30.00,SSE,164,7.0,14.0,100,0.00,,,0.00,VWS V14.01,2013-05-24 12:47:00,
2013-05-24 07:52:00,55.1,55.1,30.00,SSE,168,7.0,8.0,100,0.00,,,0.00,VWS V14.01,2013-05-24 12:52:00,
2013-05-24 07:57:00,55.1,55.1,30.00,SSE,157,2.0,10.0,100,0.00,,,0.00,VWS V14.01,2013-05-24 12:57:00,
2013-05-24 08:02:00,55.1,55.1,30.00,South,176,6.0,14.0,100,0.00,,,0.00,VWS V14.01,2013-05-24 13:02:00,
2013-05-24 08:07:00,55.3,55.3,29.99,SSE,158,6.0,10.0,100,0.00,,,0.00,VWS V14.01,2013-05-24 13:07:00,
2013-05-24 08:12:00,55.3,55.3,29.99,SSE,162,7.0,11.0,100,0.00,,,0.00,VWS V14.01,2013-05-24 13:12:00,
2013-05-24 08:17:00,55.3,55.3,29.99,South,189,7.0,12.0,100,0.00,,,0.00,VWS V14.01,2013-05-24 13:17:00,
2013-05-24 08:22:00,55.3,55.3,30.01,South,176,6.0,17.0,100,0.00,,,0.00,VWS V14.01,2013-05-24 13:22:00,
2013-05-24 08:27:00,55.3,55.3,30.01,South,184,7.0,17.0,100,0.00,,,0.00,VWS V14.01,2013-05-24 13:27:00,
2013-05-24 08:32:00,55.4,55.4,30.01,SSW,196,8.0,17.0,100,0.00,,,0.00,VWS V14.01,2013-05-24 13:32:00,
2013-05-24 08:37:00,55.4,55.4,30.02,South,185,7.0,11.0,100,0.00,,,0.00,VWS V14.01,2013-05-24 13:37:00,
2013-05-24 08:42:00,55.6,55.6,30.02,SSE,161,7.0,13.0,100,0.00,,,0.00,VWS V14.01,2013-05-24 13:42:00,
2013-05-24 08:47:00,55.6,55.6,30.02,SSW,192,12.0,14.0,100,0.00,,,0.00,VWS V14.01,2013-05-24 13:47:00,
2013-05-24 08:52:00,55.6,55.6,30.02,SSE,152,7.0,18.0,100,0.00,,,0.00,VWS V14.01,2013-05-24 13:52:00,
2013-05-24 08:57:00,55.6,55.6,30.02,SSE,167,9.0,18.0,100,0.00,,,0.00,VWS V14.01,2013-05-24 13:57:00,
2013-05-24 09:02:00,55.6,55.6,30.02,South,175,5.0,18.0,100,0.00,,,0.00,VWS V14.01,2013-05-24 14:02:00,
2013-05-24 09:07:00,55.6,55.6,30.02,South,171,7.0,12.0,100,0.00,,,0.00,VWS V14.01,2013-05-24 14:07:00,
2013-05-24 09:12:00,55.7,55.7,30.02,SSE,158,7.0,12.0,100,0.00,,,0.00,VWS V14.01,2013-05-24 14:12:00,
2013-05-24 09:17:00,55.9,55.9,30.02,South,188,6.0,12.0,100,0.00,,,0.00,VWS V14.01,2013-05-24 14:17:00,
2013-05-24 09:22:00,56.0,56.0,30.02,South,171,6.0,13.0,100,0.00,,,0.00,VWS V14.01,2013-05-24 14:22:00,
2013-05-24 09:27:00,56.2,56.2,30.02,SSE,157,7.0,15.0,100,0.00,,,0.00,VWS V14.01,2013-05-24 14:27:00,
2013-05-24 09:32:00,56.5,56.5,30.02,SSE,161,6.0,21.0,100,0.00,,,0.00,VWS V14.01,2013-05-24 14:32:00,
2013-05-24 09:37:00,56.7,56.7,30.01,SSE,167,6.0,12.0,100,0.00,,,0.00,VWS V14.01,2013-05-24 14:37:00,
2013-05-24 09:42:00,56.9,56.9,30.01,SSW,202,24.0,24.0,100,0.00,,,0.00,VWS V14.01,2013-05-24 14:42:00,
2013-05-24 09:47:00,56.9,56.9,30.01,SSE,150,11.0,24.0,100,0.00,,,0.00,VWS V14.01,2013-05-24 14:47:00,
2013-05-24 09:52:00,56.9,56.9,30.01,SSW,193,8.0,17.0,100,0.00,,,0.00,VWS V14.01,2013-05-24 14:52:00,
2013-05-24 09:57:00,57.2,57.2,30.01,South,189,16.0,17.0,100,0.00,,,0.00,VWS V14.01,2013-05-24 14:57:00,
2013-05-24 10:02:00,57.3,57.3,30.01,South,191,7.0,17.0,100,0.00,,,0.00,VWS V14.01,2013-05-24 15:02:00,
2013-05-24 10:07:00,57.3,57.3,30.01,South,189,6.0,17.0,100,0.00,,,0.00,VWS V14.01,2013-05-24 15:07:00,
2013-05-24 10:12:00,57.5,57.5,30.01,South,172,8.0,17.0,100,0.00,,,0.00,VWS V14.01,2013-05-24 15:12:00,
2013-05-24 10:17:00,58.0,58.0,30.01,South,175,10.0,17.0,100,0.00,,,0.00,VWS V14.01,2013-05-24 15:17:00,
2013-05-24 10:22:00,58.3,57.7,30.00,SSE,168,12.0,19.0,98,0.00,,,0.00,VWS V14.01,2013-05-24 15:22:00,
2013-05-24 10:27:00,58.9,58.3,30.00,SSE,164,8.0,19.0,98,0.00,,,0.00,VWS V14.01,2013-05-24 15:27:00,
2013-05-24 10:32:00,59.6,57.9,30.00,SSW,193,11.0,19.0,94,0.00,,,0.00,VWS V14.01,2013-05-24 15:32:00,
2013-05-24 10:37:00,60.2,57.9,29.99,SSE,168,7.0,16.0,92,0.00,,,0.00,VWS V14.01,2013-05-24 15:37:00,
2013-05-24 10:42:00,60.1,56.8,29.99,SSW,200,8.0,24.0,89,0.00,,,0.00,VWS V14.01,2013-05-24 15:42:00,
2013-05-24 10:47:00,60.7,56.8,29.99,SSW,203,10.0,24.0,87,0.00,,,0.00,VWS V14.01,2013-05-24 15:47:00,
2013-05-24 10:52:00,61.5,56.0,29.99,SSE,164,10.0,15.0,82,0.00,,,0.00,VWS V14.01,2013-05-24 15:52:00,
2013-05-24 10:57:00,61.2,56.3,29.99,SSW,210,11.0,15.0,84,0.00,,,0.00,VWS V14.01,2013-05-24 15:57:00,
2013-05-24 11:02:00,61.2,56.3,29.98,South,175,6.0,15.0,84,0.00,,,0.00,VWS V14.01,2013-05-24 16:02:00,
2013-05-24 11:07:00,61.5,56.0,29.98,SSW,208,18.0,18.0,82,0.00,,,0.00,VWS V14.01,2013-05-24 16:07:00,
2013-05-24 11:12:00,61.8,56.2,29.98,South,182,10.0,18.0,82,0.00,,,0.00,VWS V14.01,2013-05-24 16:12:00,
2013-05-24 11:17:00,62.7,56.8,29.97,South,179,8.0,18.0,81,0.00,,,0.00,VWS V14.01,2013-05-24 16:17:00,
2013-05-24 11:22:00,62.6,56.0,29.97,South,186,9.0,17.0,79,0.00,,,0.00,VWS V14.01,2013-05-24 16:22:00,
2013-05-24 11:27:00,62.6,56.7,29.97,South,169,9.0,17.0,81,0.00,,,0.00,VWS V14.01,2013-05-24 16:27:00,
2013-05-24 11:32:00,62.9,55.6,29.97,SSW,192,8.0,22.0,77,0.00,,,0.00,VWS V14.01,2013-05-24 16:32:00,
2013-05-24 11:37:00,63.5,56.2,29.97,South,189,7.0,17.0,77,0.00,,,0.00,VWS V14.01,2013-05-24 16:37:00,
2013-05-24 11:42:00,64.2,56.5,29.97,South,169,9.0,19.0,76,0.00,,,0.00,VWS V14.01,2013-05-24 16:42:00,
2013-05-24 11:47:00,65.0,56.9,29.96,South,189,15.0,19.0,75,0.00,,,0.00,VWS V14.01,2013-05-24 16:47:00,
2013-05-24 11:52:00,65.6,57.1,29.96,South,174,12.0,14.0,74,0.00,,,0.00,VWS V14.01,2013-05-24 16:52:00,
2013-05-24 11:57:00,65.8,56.5,29.96,SSE,157,12.0,16.0,72,0.00,,,0.00,VWS V14.01,2013-05-24 16:57:00,
2013-05-24 12:02:00,66.1,56.0,29.95,South,169,8.0,17.0,70,0.00,,,0.00,VWS V14.01,2013-05-24 17:02:00,
2013-05-24 12:07:00,66.3,56.6,29.95,SSE,162,10.0,17.0,71,0.00,,,0.00,VWS V14.01,2013-05-24 17:07:00,
2013-05-24 12:12:00,66.6,56.1,29.95,South,172,7.0,17.0,69,0.00,,,0.00,VWS V14.01,2013-05-24 17:12:00,
2013-05-24 12:17:00,66.8,55.9,29.94,SSW,203,11.0,19.0,68,0.00,,,0.00,VWS V14.01,2013-05-24 17:17:00,
2013-05-24 12:22:00,66.8,56.3,29.94,SSE,150,9.0,15.0,69,0.00,,,0.00,VWS V14.01,2013-05-24 17:22:00,
2013-05-24 12:27:00,66.6,56.1,29.94,South,181,13.0,17.0,69,0.00,,,0.00,VWS V14.01,2013-05-24 17:27:00,
2013-05-24 12:32:00,66.8,56.7,29.94,South,181,7.0,18.0,70,0.00,,,0.00,VWS V14.01,2013-05-24 17:32:00,
2013-05-24 12:37:00,67.4,56.9,29.94,SSW,199,14.0,25.0,69,0.00,,,0.00,VWS V14.01,2013-05-24 17:37:00,
2013-05-24 12:42:00,67.4,57.7,29.94,South,186,12.0,25.0,71,0.00,,,0.00,VWS V14.01,2013-05-24 17:42:00,
2013-05-24 12:47:00,67.1,57.4,29.93,SSW,195,10.0,25.0,71,0.00,,,0.00,VWS V14.01,2013-05-24 17:47:00,
2013-05-24 12:52:00,66.9,57.2,29.93,SSW,212,16.0,20.0,71,0.00,,,0.00,VWS V14.01,2013-05-24 17:52:00,
2013-05-24 12:57:00,67.1,57.4,29.93,South,191,16.0,20.0,71,0.00,,,0.00,VWS V14.01,2013-05-24 17:57:00,
2013-05-24 13:02:00,66.9,57.6,29.93,South,178,10.0,20.0,72,0.00,,,0.00,VWS V14.01,2013-05-24 18:02:00,
2013-05-24 13:07:00,66.8,58.3,29.93,South,185,12.0,22.0,74,0.00,,,0.00,VWS V14.01,2013-05-24 18:07:00,
2013-05-24 13:12:00,66.9,58.0,29.93,South,191,7.0,22.0,73,0.00,,,0.00,VWS V14.01,2013-05-24 18:12:00,
2013-05-24 13:17:00,67.1,58.2,29.93,SSW,193,10.0,22.0,73,0.00,,,0.00,VWS V14.01,2013-05-24 18:17:00,
2013-05-24 13:22:00,66.8,58.3,29.93,SSW,195,9.0,24.0,74,0.00,,,0.00,VWS V14.01,2013-05-24 18:22:00,
2013-05-24 13:27:00,66.6,58.4,29.93,South,186,14.0,24.0,75,0.00,,,0.00,VWS V14.01,2013-05-24 18:27:00,
2013-05-24 13:32:00,66.3,58.5,29.93,SSW,193,16.0,24.0,76,0.00,,,0.00,VWS V14.01,2013-05-24 18:32:00,
2013-05-24 13:37:00,66.3,58.5,29.93,South,179,10.0,14.0,76,0.00,,,0.00,VWS V14.01,2013-05-24 18:37:00,
2013-05-24 13:42:00,66.1,57.6,29.93,South,185,9.0,17.0,74,0.00,,,0.00,VWS V14.01,2013-05-24 18:42:00,
2013-05-24 13:47:00,66.3,58.5,29.92,SSW,198,12.0,21.0,76,0.00,,,0.00,VWS V14.01,2013-05-24 18:47:00,
2013-05-24 13:52:00,66.3,59.2,29.92,South,188,17.0,19.0,78,0.00,,,0.00,VWS V14.01,2013-05-24 18:52:00,
2013-05-24 13:57:00,66.3,59.2,29.92,South,185,7.0,26.0,78,0.00,,,0.00,VWS V14.01,2013-05-24 18:57:00,
2013-05-24 14:02:00,66.4,59.0,29.93,South,186,12.0,26.0,77,0.00,,,0.00,VWS V14.01,2013-05-24 19:02:00,
2013-05-24 14:07:00,66.9,59.5,29.93,SSE,168,7.0,25.0,77,0.00,,,0.00,VWS V14.01,2013-05-24 19:07:00,
2013-05-24 14:12:00,66.8,59.0,29.93,SSW,193,14.0,25.0,76,0.00,,,0.00,VWS V14.01,2013-05-24 19:12:00,
2013-05-24 14:17:00,66.4,59.0,29.91,SSE,165,8.0,25.0,77,0.00,,,0.00,VWS V14.01,2013-05-24 19:17:00,
2013-05-24 14:22:00,66.3,59.6,29.91,South,182,7.0,18.0,79,0.00,,,0.00,VWS V14.01,2013-05-24 19:22:00,
2013-05-24 14:27:00,65.8,59.1,29.91,SSW,195,13.0,18.0,79,0.00,,,0.00,VWS V14.01,2013-05-24 19:27:00,
2013-05-24 14:32:00,65.5,59.2,29.92,SSE,150,5.0,18.0,80,0.00,,,0.00,VWS V14.01,2013-05-24 19:32:00,
2013-05-24 14:37:00,65.3,59.0,29.92,South,176,12.0,12.0,80,0.00,,,0.00,VWS V14.01,2013-05-24 19:37:00,
2013-05-24 14:42:00,65.2,58.5,29.92,South,169,5.0,12.0,79,0.00,,,0.00,VWS V14.01,2013-05-24 19:42:00,
2013-05-24 14:47:00,65.2,59.6,29.92,South,178,7.0,13.0,82,0.00,,,0.00,VWS V14.01,2013-05-24 19:47:00,
2013-05-24 14:52:00,65.2,58.9,29.92,SSE,155,5.0,14.0,80,0.00,,,0.00,VWS V14.01,2013-05-24 19:52:00,
2013-05-24 14:57:00,65.2,58.9,29.92,South,191,10.0,14.0,80,0.00,,,0.00,VWS V14.01,2013-05-24 19:57:00,
2013-05-24 15:02:00,65.3,59.3,29.91,South,178,7.0,14.0,81,0.00,,,0.00,VWS V14.01,2013-05-24 20:02:00,
2013-05-24 15:07:00,65.3,59.3,29.91,South,188,10.0,15.0,81,0.00,,,0.00,VWS V14.01,2013-05-24 20:07:00,
2013-05-24 15:12:00,65.6,60.3,29.91,South,169,8.0,15.0,83,0.00,,,0.00,VWS V14.01,2013-05-24 20:12:00,
2013-05-24 15:17:00,65.8,59.8,29.90,SSW,195,8.0,15.0,81,0.00,,,0.00,VWS V14.01,2013-05-24 20:17:00,
2013-05-24 15:22:00,66.0,60.3,29.90,South,189,10.0,13.0,82,0.00,,,0.00,VWS V14.01,2013-05-24 20:22:00,
2013-05-24 15:27:00,66.4,60.4,29.90,South,171,7.0,13.0,81,0.00,,,0.00,VWS V14.01,2013-05-24 20:27:00,
2013-05-24 15:32:00,67.3,61.3,29.88,South,191,5.0,14.0,81,0.00,,,0.00,VWS V14.01,2013-05-24 20:32:00,
2013-05-24 15:37:00,67.9,61.5,29.88,SSW,196,12.0,14.0,80,0.00,,,0.00,VWS V14.01,2013-05-24 20:37:00,
2013-05-24 15:42:00,68.4,61.3,29.88,SSE,162,7.0,14.0,78,0.00,,,0.00,VWS V14.01,2013-05-24 20:42:00,
2013-05-24 15:47:00,68.8,62.0,29.87,South,174,7.0,20.0,79,0.00,,,0.00,VWS V14.01,2013-05-24 20:47:00,
2013-05-24 15:52:00,69.3,61.4,29.87,SSW,193,14.0,17.0,76,0.00,,,0.00,VWS V14.01,2013-05-24 20:52:00,
2013-05-24 15:57:00,69.8,61.9,29.87,South,184,16.0,21.0,76,0.00,,,0.00,VWS V14.01,2013-05-24 20:57:00,
2013-05-24 16:02:00,70.3,62.4,29.86,SSE,167,8.0,24.0,76,0.00,,,0.00,VWS V14.01,2013-05-24 21:02:00,
2013-05-24 16:07:00,71.5,63.2,29.86,SSE,160,10.0,19.0,75,0.00,,,0.00,VWS V14.01,2013-05-24 21:07:00,
2013-05-24 16:12:00,71.8,61.9,29.86,South,188,17.0,22.0,71,0.00,,,0.00,VWS V14.01,2013-05-24 21:12:00,
2013-05-24 16:17:00,72.0,62.5,29.85,SSW,199,12.0,24.0,72,0.00,,,0.00,VWS V14.01,2013-05-24 21:17:00,
2013-05-24 16:22:00,72.7,62.0,29.85,South,191,12.0,24.0,69,0.00,,,0.00,VWS V14.01,2013-05-24 21:22:00,
2013-05-24 16:27:00,72.7,62.4,29.85,SSW,192,13.0,24.0,70,0.00,,,0.00,VWS V14.01,2013-05-24 21:27:00,
2013-05-24 16:32:00,73.2,62.4,29.84,SSW,192,17.0,24.0,69,0.00,,,0.00,VWS V14.01,2013-05-24 21:32:00,
2013-05-24 16:37:00,73.3,62.9,29.84,South,191,12.0,22.0,70,0.00,,,0.00,VWS V14.01,2013-05-24 21:37:00,
2013-05-24 16:42:00,73.7,62.1,29.84,South,189,12.0,24.0,67,0.00,,,0.00,VWS V14.01,2013-05-24 21:42:00,
2013-05-24 16:47:00,73.7,62.5,29.83,SSE,162,6.0,24.0,68,0.00,,,0.00,VWS V14.01,2013-05-24 21:47:00,
2013-05-24 16:52:00,74.2,61.7,29.83,SSW,206,21.0,26.0,65,0.00,,,0.00,VWS V14.01,2013-05-24 21:52:00,
2013-05-24 16:57:00,74.4,62.3,29.83,SSW,195,11.0,26.0,66,0.00,,,0.00,VWS V14.01,2013-05-24 21:57:00,
2013-05-24 17:02:00,74.4,61.4,29.83,SSE,168,12.0,26.0,64,0.00,,,0.00,VWS V14.01,2013-05-24 22:02:00,
2013-05-24 17:07:00,74.6,62.5,29.83,SSE,155,7.0,18.0,66,0.00,,,0.00,VWS V14.01,2013-05-24 22:07:00,
2013-05-24 17:12:00,74.7,62.6,29.83,South,185,13.0,19.0,66,0.00,,,0.00,VWS V14.01,2013-05-24 22:12:00,
2013-05-24 17:17:00,75.1,63.0,29.82,SSE,158,12.0,19.0,66,0.00,,,0.00,VWS V14.01,2013-05-24 22:17:00,
2013-05-24 17:22:00,75.3,62.3,29.82,SSW,198,12.0,22.0,64,0.00,,,0.00,VWS V14.01,2013-05-24 22:22:00,
2013-05-24 17:27:00,75.3,62.3,29.82,SSW,198,17.0,24.0,64,0.00,,,0.00,VWS V14.01,2013-05-24 22:27:00,
2013-05-24 17:32:00,75.6,63.0,29.81,South,178,7.0,24.0,65,0.00,,,0.00,VWS V14.01,2013-05-24 22:32:00,
2013-05-24 17:37:00,75.8,62.8,29.81,South,176,9.0,19.0,64,0.00,,,0.00,VWS V14.01,2013-05-24 22:37:00,
2013-05-24 17:42:00,76.1,62.6,29.81,SSW,193,10.0,19.0,63,0.00,,,0.00,VWS V14.01,2013-05-24 22:42:00,
2013-05-24 17:47:00,76.3,62.3,29.80,SSW,192,14.0,19.0,62,0.00,,,0.00,VWS V14.01,2013-05-24 22:47:00,
2013-05-24 17:52:00,76.5,62.5,29.80,SSW,192,9.0,18.0,62,0.00,,,0.00,VWS V14.01,2013-05-24 22:52:00,
2013-05-24 17:57:00,76.7,61.8,29.80,SW,220,18.0,24.0,60,0.00,,,0.00,VWS V14.01,2013-05-24 22:57:00,
2013-05-24 18:02:00,76.7,61.8,29.79,SSE,165,9.0,25.0,60,0.00,,,0.00,VWS V14.01,2013-05-24 23:02:00,
2013-05-24 18:07:00,76.8,62.8,29.79,SSE,157,7.0,17.0,62,0.00,,,0.00,VWS V14.01,2013-05-24 23:07:00,
2013-05-24 18:12:00,76.7,62.2,29.79,SSE,168,7.0,17.0,61,0.00,,,0.00,VWS V14.01,2013-05-24 23:12:00,
2013-05-24 18:17:00,76.7,61.8,29.78,South,186,11.0,17.0,60,0.00,,,0.00,VWS V14.01,2013-05-24 23:17:00,
2013-05-24 18:22:00,76.3,61.4,29.78,SSW,195,14.0,24.0,60,0.00,,,0.00,VWS V14.01,2013-05-24 23:22:00,
2013-05-24 18:27:00,76.3,61.9,29.78,South,178,7.0,24.0,61,0.00,,,0.00,VWS V14.01,2013-05-24 23:27:00,
2013-05-24 18:32:00,76.5,62.5,29.78,South,186,13.0,24.0,62,0.00,,,0.00,VWS V14.01,2013-05-24 23:32:00,
2013-05-24 18:37:00,76.1,62.2,29.78,SSE,168,10.0,18.0,62,0.00,,,0.00,VWS V14.01,2013-05-24 23:37:00,
2013-05-24 18:42:00,75.8,61.4,29.78,SSW,193,8.0,18.0,61,0.00,,,0.00,VWS V14.01,2013-05-24 23:42:00,
2013-05-24 18:47:00,75.6,63.0,29.77,SE,131,8.0,18.0,65,0.00,,,0.00,VWS V14.01,2013-05-24 23:47:00,
2013-05-24 18:52:00,75.4,62.4,29.77,SSE,161,8.0,18.0,64,0.00,,,0.00,VWS V14.01,2013-05-24 23:52:00,
2013-05-24 18:57:00,74.9,62.8,29.77,SSW,193,14.0,18.0,66,0.00,,,0.00,VWS V14.01,2013-05-24 23:57:00,
2013-05-24 19:02:00,74.6,62.5,29.77,SE,141,7.0,18.0,66,0.00,,,0.00,VWS V14.01,2013-05-25 00:02:00,
2013-05-24 19:07:00,74.2,63.0,29.77,SSW,202,13.0,17.0,68,0.00,,,0.00,VWS V14.01,2013-05-25 00:07:00,
2013-05-24 19:12:00,74.0,63.6,29.77,South,169,7.0,17.0,70,0.00,,,0.00,VWS V14.01,2013-05-25 00:12:00,
2013-05-24 19:17:00,73.7,63.7,29.77,SE,136,5.0,17.0,71,0.00,,,0.00,VWS V14.01,2013-05-25 00:17:00,
2013-05-24 19:22:00,73.5,63.1,29.77,SSE,164,8.0,14.0,70,0.00,,,0.00,VWS V14.01,2013-05-25 00:22:00,
2013-05-24 19:27:00,73.3,63.3,29.77,SSE,147,5.0,14.0,71,0.00,,,0.00,VWS V14.01,2013-05-25 00:27:00,
2013-05-24 19:32:00,73.2,63.2,29.77,SSE,161,5.0,14.0,71,0.00,,,0.00,VWS V14.01,2013-05-25 00:32:00,
2013-05-24 19:38:00,73.2,64.0,29.77,SSE,155,7.0,14.0,73,0.00,,,0.00,VWS V14.01,2013-05-25 00:38:00,
2013-05-24 19:43:00,73.0,63.8,29.77,SSE,164,6.0,14.0,73,0.00,,,0.00,VWS V14.01,2013-05-25 00:43:00,
2013-05-24 19:48:00,73.0,64.2,29.77,SSW,192,5.0,11.0,74,0.00,,,0.00,VWS V14.01,2013-05-25 00:48:00,
2013-05-24 19:53:00,72.8,64.0,29.77,SSE,165,7.0,11.0,74,0.00,,,0.00,VWS V14.01,2013-05-25 00:53:00,
2013-05-24 19:58:00,72.8,64.8,29.77,South,182,5.0,11.0,76,0.00,,,0.00,VWS V14.01,2013-05-25 00:58:00,
2013-05-24 20:03:00,72.8,64.4,29.78,SSE,165,5.0,10.0,75,0.00,,,0.00,VWS V14.01,2013-05-25 01:03:00,
2013-05-24 20:08:00,72.7,63.9,29.78,SSE,162,7.0,12.0,74,0.00,,,0.00,VWS V14.01,2013-05-25 01:08:00,
2013-05-24 20:13:00,72.7,63.5,29.78,South,176,5.0,12.0,73,0.00,,,0.00,VWS V14.01,2013-05-25 01:13:00,
2013-05-24 20:18:00,72.3,64.3,29.78,South,179,5.0,10.0,76,0.00,,,0.00,VWS V14.01,2013-05-25 01:18:00,
2013-05-24 20:23:00,72.1,63.8,29.78,SSE,164,5.0,10.0,75,0.00,,,0.00,VWS V14.01,2013-05-25 01:23:00,
2013-05-24 20:28:00,72.0,63.7,29.78,SSE,151,7.0,11.0,75,0.00,,,0.00,VWS V14.01,2013-05-25 01:28:00,
2013-05-24 20:33:00,71.6,63.6,29.78,South,175,5.0,12.0,76,0.00,,,0.00,VWS V14.01,2013-05-25 01:33:00,
2013-05-24 20:38:00,71.5,63.9,29.78,South,191,8.0,12.0,77,0.00,,,0.00,VWS V14.01,2013-05-25 01:38:00,
2013-05-24 20:43:00,71.3,64.1,29.78,SSE,162,7.0,12.0,78,0.00,,,0.00,VWS V14.01,2013-05-25 01:43:00,
2013-05-24 20:48:00,70.9,64.4,29.78,South,171,7.0,10.0,80,0.00,,,0.00,VWS V14.01,2013-05-25 01:48:00,
2013-05-24 20:53:00,70.6,64.1,29.78,SSE,164,5.0,16.0,80,0.00,,,0.00,VWS V14.01,2013-05-25 01:53:00,
2013-05-24 20:58:00,70.3,64.2,29.78,South,181,8.0,16.0,81,0.00,,,0.00,VWS V14.01,2013-05-25 01:58:00,
2013-05-24 21:03:00,70.1,64.7,29.77,South,185,9.0,15.0,83,0.00,,,0.00,VWS V14.01,2013-05-25 02:03:00,
2013-05-24 21:08:00,69.9,64.5,29.77,SSE,168,5.0,19.0,83,0.00,,,0.00,VWS V14.01,2013-05-25 02:08:00,
2013-05-24 21:13:00,69.6,64.6,29.77,SSE,164,3.0,19.0,84,0.00,,,0.00,VWS V14.01,2013-05-25 02:13:00,
2013-05-24 21:18:00,69.4,64.4,29.78,SSE,165,6.0,7.0,84,0.00,,,0.00,VWS V14.01,2013-05-25 02:18:00,
2013-05-24 21:23:00,69.3,64.9,29.78,SSE,160,3.0,11.0,86,0.00,,,0.00,VWS V14.01,2013-05-25 02:23:00,
2013-05-24 21:28:00,69.1,65.1,29.78,South,171,6.0,13.0,87,0.00,,,0.00,VWS V14.01,2013-05-25 02:28:00,
2013-05-24 21:33:00,68.9,64.9,29.79,South,176,2.0,6.0,87,0.00,,,0.00,VWS V14.01,2013-05-25 02:33:00,
2013-05-24 21:38:00,68.9,65.2,29.79,SSW,208,7.0,13.0,88,0.00,,,0.00,VWS V14.01,2013-05-25 02:38:00,
2013-05-24 21:43:00,68.9,65.2,29.79,South,172,7.0,16.0,88,0.00,,,0.00,VWS V14.01,2013-05-25 02:43:00,
2013-05-24 21:49:00,68.9,65.5,29.80,SSW,195,8.0,12.0,89,0.00,,,0.00,VWS V14.01,2013-05-25 02:49:00,
2013-05-24 21:54:00,68.8,65.4,29.80,South,185,7.0,14.0,89,0.00,,,0.00,VWS V14.01,2013-05-25 02:54:00,
2013-05-24 21:59:00,68.6,65.2,29.80,SSE,168,7.0,14.0,89,0.00,,,0.00,VWS V14.01,2013-05-25 02:59:00,
2013-05-24 22:04:00,68.4,65.7,29.81,South,185,7.0,10.0,91,0.00,,,0.00,VWS V14.01,2013-05-25 03:04:00,
2013-05-24 22:09:00,68.4,66.3,29.81,South,175,5.0,10.0,93,0.00,,,0.00,VWS V14.01,2013-05-25 03:09:00,
2013-05-24 22:14:00,68.3,66.5,29.81,South,169,5.0,11.0,94,0.00,,,0.00,VWS V14.01,2013-05-25 03:14:00,
2013-05-24 22:19:00,68.3,67.4,29.81,South,174,8.0,10.0,97,0.00,,,0.00,VWS V14.01,2013-05-25 03:19:00,
2013-05-24 22:24:00,68.3,67.4,29.81,SSE,164,4.0,10.0,97,0.00,,,0.00,VWS V14.01,2013-05-25 03:24:00,
2013-05-24 22:29:00,68.3,67.7,29.81,SSE,152,1.0,10.0,98,0.00,,,0.00,VWS V14.01,2013-05-25 03:29:00,
2013-05-24 22:34:00,68.1,68.1,29.82,SSE,155,2.0,4.0,100,0.00,,,0.00,VWS V14.01,2013-05-25 03:34:00,
2013-05-24 22:39:00,68.1,68.1,29.82,South,174,2.0,7.0,100,0.00,,,0.00,VWS V14.01,2013-05-25 03:39:00,
2013-05-24 22:44:00,68.1,68.1,29.82,South,191,0.0,8.0,100,0.00,,,0.00,VWS V14.01,2013-05-25 03:44:00,
2013-05-24 22:49:00,68.1,68.1,29.82,South,191,1.0,6.0,100,0.00,,,0.00,VWS V14.01,2013-05-25 03:49:00,
2013-05-24 22:54:00,68.1,68.1,29.82,SW,222,1.0,7.0,100,0.00,,,0.00,VWS V14.01,2013-05-25 03:54:00,
2013-05-24 22:59:00,68.1,68.1,29.82,SW,222,1.0,7.0,100,0.00,,,0.00,VWS V14.01,2013-05-25 03:59:00,
2013-05-24 23:01:00,68.1,68.1,29.82,SW,222,0.0,7.0,100,0.00,,,0.00,VWS V14.01,2013-05-25 04:01:00,
2013-05-24 23:06:00,68.1,68.1,29.84,SW,222,0.0,2.0,100,0.00,,,0.00,VWS V14.01,2013-05-25 04:06:00,
2013-05-24 23:11:00,68.1,68.1,29.84,SW,222,0.0,4.0,100,0.00,,,0.00,VWS V14.01,2013-05-25 04:11:00,
2013-05-24 23:16:00,68.1,68.1,29.84,SW,222,0.0,4.0,100,0.00,,,0.00,VWS V14.01,2013-05-25 04:16:00,
2013-05-24 23:21:00,68.1,68.1,29.83,SW,222,0.0,2.0,100,0.00,,,0.00,VWS V14.01,2013-05-25 04:21:00,
2013-05-24 23:26:00,68.1,68.1,29.83,SW,222,2.0,2.0,100,0.00,,,0.00,VWS V14.01,2013-05-25 04:26:00,
2013-05-24 23:31:00,68.1,68.1,29.83,SSW,198,1.0,8.0,100,0.00,,,0.00,VWS V14.01,2013-05-25 04:31:00,
2013-05-24 23:36:00,68.3,68.3,29.82,SSE,165,5.0,7.0,100,0.00,,,0.00,VWS V14.01,2013-05-25 04:36:00,
2013-05-24 23:41:00,68.3,68.3,29.82,South,182,9.0,11.0,100,0.00,,,0.00,VWS V14.01,2013-05-25 04:41:00,
2013-05-24 23:46:00,68.3,68.3,29.82,SSW,192,8.0,12.0,100,0.00,,,0.00,VWS V14.01,2013-05-25 04:46:00,
2013-05-24 23:51:00,68.4,68.4,29.82,SW,216,7.0,13.0,100,0.00,,,0.00,VWS V14.01,2013-05-25 04:51:00,
2013-05-24 23:56:00,67.3,67.3,29.82,North,359,12.0,17.0,100,0.00,,,0.00,VWS V14.01,2013-05-25 04:56:00,